createdAt,value
2018-04-01T00:00:28.860Z,0.90
2018-04-01T00:02:57.031Z,0.93
2018-04-01T00:05:26.037Z,1.00
2018-04-01T00:07:54.186Z,1.23
2018-04-01T00:10:22.380Z,1.03
2018-04-01T00:12:50.543Z,0.73
2018-04-01T00:15:19.474Z,1.03
2018-04-01T00:17:48.356Z,1.00
2018-04-01T00:20:16.493Z,1.33
2018-04-01T00:22:44.640Z,1.13
2018-04-01T00:25:12.818Z,0.83
2018-04-01T00:27:41.037Z,0.80
2018-04-01T00:30:09.969Z,0.70
2018-04-01T00:32:38.127Z,1.13
2018-04-01T00:35:06.281Z,0.80
2018-04-01T00:37:34.481Z,0.80
2018-04-01T00:40:02.626Z,1.13
2018-04-01T00:42:31.521Z,0.80
2018-04-01T00:44:59.704Z,0.87
2018-04-01T00:47:27.861Z,0.90
2018-04-01T00:49:56.760Z,1.00
2018-04-01T00:52:25.717Z,0.90
2018-04-01T00:54:53.882Z,1.17
2018-04-01T00:57:22.183Z,0.70
2018-04-01T00:59:50.333Z,0.80
2018-04-01T01:02:18.630Z,0.90
2018-04-01T01:04:46.791Z,0.87
2018-04-01T01:07:14.931Z,0.70
2018-04-01T01:09:43.068Z,0.97
2018-04-01T01:12:11.441Z,1.00
2018-04-01T01:14:39.576Z,1.07
2018-04-01T01:17:07.725Z,0.80
2018-04-01T01:19:35.858Z,0.97
2018-04-01T01:22:03.986Z,1.20
2018-04-01T01:24:32.139Z,0.90
2018-04-01T01:27:00.317Z,1.10
2018-04-01T01:29:28.469Z,1.00
2018-04-01T01:31:57.366Z,1.07
2018-04-01T01:34:25.516Z,0.90
2018-04-01T01:36:53.677Z,1.07
2018-04-01T01:39:21.812Z,0.70
2018-04-01T01:41:49.956Z,1.13
2018-04-01T01:44:18.094Z,1.10
2018-04-01T01:46:46.240Z,1.70
2018-04-01T01:49:14.385Z,0.97
2018-04-01T01:51:43.284Z,1.00
2018-04-01T01:54:12.197Z,1.00
2018-04-01T01:56:40.367Z,0.97
2018-04-01T01:59:08.507Z,1.00
2018-04-01T02:01:38.258Z,0.97
2018-04-01T02:04:06.394Z,1.30
2018-04-01T02:06:34.545Z,1.03
2018-04-01T02:09:02.740Z,0.97
2018-04-01T02:11:30.887Z,0.93
2018-04-01T02:13:59.027Z,1.00
2018-04-01T02:16:27.157Z,1.00
2018-04-01T02:18:55.350Z,0.90
2018-04-01T02:21:23.592Z,1.03
2018-04-01T02:23:51.729Z,0.80
2018-04-01T02:26:19.984Z,0.77
2018-04-01T02:28:48.094Z,0.87
2018-04-01T02:31:16.238Z,0.97
2018-04-01T02:33:44.709Z,0.90
2018-04-01T02:36:12.870Z,0.90
2018-04-01T02:38:41.021Z,1.47
2018-04-01T02:41:09.165Z,1.10
2018-04-01T02:43:37.307Z,1.03
2018-04-01T02:46:06.225Z,0.80
2018-04-01T02:48:34.379Z,1.30
2018-04-01T02:51:02.546Z,1.17
2018-04-01T02:53:30.683Z,0.83
2018-04-01T02:55:58.902Z,1.00
2018-04-01T02:58:27.834Z,1.20
2018-04-01T03:00:56.727Z,1.30
2018-04-01T03:03:24.864Z,0.97
2018-04-01T03:05:53.122Z,0.90
2018-04-01T03:08:21.280Z,1.10
2018-04-01T03:10:49.408Z,0.90
2018-04-01T03:13:17.570Z,1.40
2018-04-01T03:15:45.698Z,1.10
2018-04-01T03:18:13.995Z,1.40
2018-04-01T03:20:42.150Z,1.63
2018-04-01T03:23:10.486Z,1.10
2018-04-01T03:25:38.608Z,0.97
2018-04-01T03:28:07.333Z,1.70
2018-04-01T03:30:36.314Z,1.07
2018-04-01T03:33:04.477Z,1.17
2018-04-01T03:35:32.643Z,1.10
2018-04-01T03:38:00.832Z,1.20
2018-04-01T03:40:28.949Z,1.40
2018-04-01T03:42:57.106Z,1.23
2018-04-01T03:45:25.238Z,0.90
2018-04-01T03:47:53.405Z,1.27
2018-04-01T03:50:21.527Z,1.20
2018-04-01T03:52:49.689Z,1.20
2018-04-01T03:55:17.831Z,1.60
2018-04-01T03:57:46.050Z,1.60
2018-04-01T04:00:14.952Z,1.30
2018-04-01T04:02:43.844Z,1.40
2018-04-01T04:05:11.994Z,1.67
2018-04-01T04:07:40.162Z,1.90
2018-04-01T04:10:08.290Z,1.10
2018-04-01T04:12:36.612Z,1.67
2018-04-01T04:15:04.782Z,1.73
2018-04-01T04:17:32.954Z,2.00
2018-04-01T04:20:01.089Z,1.70
2018-04-01T04:22:29.253Z,1.53
2018-04-01T04:24:57.393Z,1.70
2018-04-01T04:27:26.300Z,1.60
2018-04-01T04:29:54.431Z,1.43
2018-04-01T04:32:22.593Z,2.00
2018-04-01T04:34:50.752Z,1.50
2018-04-01T04:37:19.753Z,1.80
2018-04-01T04:39:47.907Z,2.10
2018-04-01T04:42:16.685Z,2.13
2018-04-01T04:44:45.582Z,1.90
2018-04-01T04:47:14.527Z,1.60
2018-04-01T04:49:42.694Z,2.43
2018-04-01T04:52:10.838Z,2.40
2018-04-01T04:54:38.964Z,2.47
2018-04-01T04:57:08.092Z,2.57
2018-04-01T04:59:36.431Z,2.17
2018-04-01T05:02:04.581Z,2.33
2018-04-01T05:04:32.734Z,2.57
2018-04-01T05:07:00.883Z,1.63
2018-04-01T05:09:29.068Z,2.30
2018-04-01T05:11:57.213Z,3.53
2018-04-01T05:14:25.366Z,3.37
2018-04-01T05:16:53.499Z,2.47
2018-04-01T05:19:21.649Z,2.40
2018-04-01T05:21:49.811Z,2.20
2018-04-01T05:24:17.963Z,2.50
2018-04-01T05:26:46.142Z,2.50
2018-04-01T05:29:14.277Z,3.00
2018-04-01T05:31:42.602Z,2.80
2018-04-01T05:34:10.743Z,2.30
2018-04-01T05:36:38.898Z,2.37
2018-04-01T05:39:07.085Z,2.37
2018-04-01T05:41:35.260Z,3.53
2018-04-01T05:44:03.386Z,3.80
2018-04-01T05:46:31.538Z,2.80
2018-04-01T05:48:59.694Z,3.50
2018-04-01T05:51:27.818Z,4.40
2018-04-01T05:53:55.972Z,3.90
2018-04-01T05:56:24.113Z,3.93
2018-04-01T05:58:52.277Z,4.20
2018-04-01T06:01:20.441Z,3.83
2018-04-01T06:03:48.794Z,3.27
2018-04-01T06:06:17.061Z,4.30
2018-04-01T06:08:45.204Z,3.60
2018-04-01T06:11:13.387Z,5.53
2018-04-01T06:13:41.530Z,5.57
2018-04-01T06:16:09.692Z,4.67
2018-04-01T06:18:37.834Z,5.07
2018-04-01T06:21:05.977Z,5.00
2018-04-01T06:23:34.132Z,4.70
2018-04-01T06:26:02.265Z,4.13
2018-04-01T06:28:30.404Z,4.30
2018-04-01T06:30:58.581Z,4.63
2018-04-01T06:33:26.716Z,4.63
2018-04-01T06:35:55.613Z,4.60
2018-04-01T06:38:24.533Z,4.80
2018-04-01T06:40:52.668Z,5.60
2018-04-01T06:43:20.829Z,5.17
2018-04-01T06:45:48.986Z,5.20
2018-04-01T06:48:17.111Z,6.03
2018-04-01T06:50:45.300Z,5.90
2018-04-01T06:53:13.434Z,7.40
2018-04-01T06:55:41.595Z,6.73
2018-04-01T06:58:09.795Z,7.40
2018-04-01T07:00:37.937Z,7.17
2018-04-01T07:03:06.080Z,7.90
2018-04-01T07:05:34.233Z,7.60
2018-04-01T07:08:02.393Z,7.20
2018-04-01T07:10:31.319Z,7.50
2018-04-01T07:12:59.463Z,8.33
2018-04-01T07:15:27.622Z,7.47
2018-04-01T07:17:56.582Z,6.90
2018-04-01T07:20:24.740Z,7.87
2018-04-01T07:22:52.863Z,7.43
2018-04-01T07:25:21.021Z,8.20
2018-04-01T07:27:49.198Z,7.70
2018-04-01T07:30:17.366Z,8.00
2018-04-01T07:32:45.531Z,7.73
2018-04-01T07:35:13.820Z,7.03
2018-04-01T07:37:41.961Z,7.63
2018-04-01T07:40:10.114Z,6.60
2018-04-01T07:42:38.269Z,7.83
2018-04-01T07:45:06.444Z,7.33
2018-04-01T07:47:34.606Z,6.33
2018-04-01T07:50:02.753Z,7.37
2018-04-01T07:52:30.877Z,6.60
2018-04-01T07:54:59.041Z,6.83
2018-04-01T07:57:27.199Z,7.07
2018-04-01T07:59:55.340Z,7.43
2018-04-01T08:02:23.549Z,7.00
2018-04-01T08:04:51.710Z,6.20
2018-04-01T08:07:19.897Z,6.70
2018-04-01T08:09:48.377Z,6.67
2018-04-01T08:12:16.534Z,7.27
2018-04-01T08:14:44.947Z,7.10
2018-04-01T08:17:13.090Z,6.77
2018-04-01T08:19:41.279Z,6.90
2018-04-01T08:22:09.446Z,7.10
2018-04-01T08:24:37.590Z,6.23
2018-04-01T08:27:05.770Z,6.23
2018-04-01T08:29:33.907Z,6.00
2018-04-01T08:32:02.861Z,6.30
2018-04-01T08:34:31.005Z,6.33
2018-04-01T08:36:59.225Z,6.23
2018-04-01T08:39:27.370Z,7.13
2018-04-01T08:41:55.674Z,6.83
2018-04-01T08:44:23.837Z,8.60
2018-04-01T08:46:52.016Z,8.43
2018-04-01T08:49:20.310Z,7.30
2018-04-01T08:51:48.461Z,7.60
2018-04-01T08:54:16.952Z,5.87
2018-04-01T08:56:45.358Z,7.50
2018-04-01T08:59:14.289Z,6.50
2018-04-01T09:01:42.458Z,6.30
2018-04-01T09:04:10.641Z,6.27
2018-04-01T09:06:38.789Z,5.63
2018-04-01T09:09:06.973Z,6.53
2018-04-01T09:11:35.916Z,8.60
2018-04-01T09:14:04.067Z,6.93
2018-04-01T09:16:32.225Z,6.23
2018-04-01T09:19:00.389Z,5.43
2018-04-01T09:21:28.536Z,5.77
2018-04-01T09:23:56.752Z,5.70
2018-04-01T09:26:25.107Z,6.10
2018-04-01T09:28:54.056Z,6.30
2018-04-01T09:31:22.204Z,6.60
2018-04-01T09:33:50.370Z,5.30
2018-04-01T09:36:19.284Z,4.83
2018-04-01T09:38:47.475Z,5.30
2018-04-01T09:41:15.587Z,5.40
2018-04-01T09:43:44.554Z,5.30
2018-04-01T09:46:12.715Z,4.57
2018-04-01T09:48:40.883Z,5.10
2018-04-01T09:51:09.049Z,4.20
2018-04-01T09:53:37.176Z,4.60
2018-04-01T09:56:06.106Z,5.10
2018-04-01T09:58:34.290Z,3.60
2018-04-01T10:01:03.878Z,2.97
2018-04-01T10:03:33.594Z,3.17
2018-04-01T10:06:02.565Z,3.07
2018-04-01T10:08:33.155Z,2.77
2018-04-01T10:11:02.398Z,2.60
2018-04-01T10:13:31.649Z,3.17
2018-04-01T10:16:00.914Z,2.60
2018-04-01T10:18:30.174Z,3.30
2018-04-01T10:21:00.223Z,3.17
2018-04-01T10:23:31.704Z,2.80
2018-04-01T10:26:01.455Z,2.80
2018-04-01T10:28:30.780Z,2.97
2018-04-01T10:31:00.005Z,2.90
2018-04-01T10:33:29.807Z,3.00
2018-04-01T10:35:59.086Z,2.70
2018-04-01T10:38:29.123Z,2.83
2018-04-01T10:40:58.357Z,2.90
2018-04-01T10:43:27.614Z,2.93
2018-04-01T10:45:56.986Z,3.47
2018-04-01T10:48:26.309Z,4.33
2018-04-01T10:50:55.837Z,3.47
2018-04-01T10:53:25.091Z,2.87
2018-04-01T10:55:53.569Z,3.07
2018-04-01T10:58:21.746Z,2.50
2018-04-01T11:00:49.904Z,2.90
2018-04-01T11:03:18.053Z,2.40
2018-04-01T11:05:46.235Z,2.80
2018-04-01T11:08:14.459Z,3.20
2018-04-01T11:10:42.625Z,2.53
2018-04-01T11:13:11.413Z,2.87
2018-04-01T11:15:38.932Z,2.13
2018-04-01T11:18:07.212Z,2.60
2018-04-01T11:20:36.132Z,2.27
2018-04-01T11:23:04.256Z,3.13
2018-04-01T11:25:32.422Z,2.60
2018-04-01T11:28:01.351Z,2.50
2018-04-01T11:30:29.577Z,2.30
2018-04-01T11:32:57.741Z,2.40
2018-04-01T11:35:25.902Z,3.33
2018-04-01T11:37:54.094Z,3.10
2018-04-01T11:40:23.730Z,3.27
2018-04-01T11:42:52.674Z,3.80
2018-04-01T11:45:20.900Z,4.10
2018-04-01T11:47:49.896Z,2.80
2018-04-01T11:50:18.047Z,2.67
2018-04-01T11:52:46.230Z,4.33
2018-04-01T11:55:15.121Z,2.70
2018-04-01T11:57:43.293Z,2.40
2018-04-01T12:00:11.635Z,3.40
2018-04-01T12:02:40.034Z,3.60
2018-04-01T12:05:08.977Z,4.67
2018-04-01T12:07:37.119Z,3.23
2018-04-01T12:10:05.298Z,2.80
2018-04-01T12:12:33.473Z,4.03
2018-04-01T12:15:01.645Z,3.33
2018-04-01T12:17:30.607Z,3.53
2018-04-01T12:19:58.817Z,3.33
2018-04-01T12:22:26.934Z,3.57
2018-04-01T12:24:55.087Z,3.90
2018-04-01T12:27:23.241Z,3.73
2018-04-01T12:29:52.425Z,2.87
2018-04-01T12:32:20.624Z,2.63
2018-04-01T12:34:49.586Z,3.40
2018-04-01T12:37:17.778Z,5.00
2018-04-01T12:39:45.939Z,2.60
2018-04-01T12:42:14.099Z,2.40
2018-04-01T12:44:42.241Z,3.23
2018-04-01T12:47:10.403Z,3.17
2018-04-01T12:49:38.646Z,3.33
2018-04-01T12:52:06.817Z,2.67
2018-04-01T12:54:34.972Z,3.33
2018-04-01T12:57:03.113Z,2.90
2018-04-01T12:59:31.272Z,3.20
2018-04-01T13:02:01.066Z,3.60
2018-04-01T13:04:29.197Z,3.17
2018-04-01T13:06:57.354Z,3.10
2018-04-01T13:09:25.584Z,2.93
2018-04-01T13:11:53.654Z,3.20
2018-04-01T13:14:21.784Z,2.77
2018-04-01T13:16:49.958Z,3.73
2018-04-01T13:19:18.121Z,3.60
2018-04-01T13:21:46.298Z,3.60
2018-04-01T13:24:14.432Z,2.80
2018-04-01T13:26:42.578Z,3.27
2018-04-01T13:29:10.746Z,2.97
2018-04-01T13:31:38.886Z,2.90
2018-04-01T13:34:07.047Z,2.80
2018-04-01T13:36:35.178Z,3.40
2018-04-01T13:39:03.331Z,3.30
2018-04-01T13:41:31.504Z,2.43
2018-04-01T13:43:59.659Z,2.53
2018-04-01T13:46:27.987Z,2.20
2018-04-01T13:48:56.185Z,2.57
2018-04-01T13:51:24.349Z,2.37
2018-04-01T13:53:52.516Z,2.70
2018-04-01T13:56:20.665Z,2.30
2018-04-01T13:58:48.899Z,2.90
2018-04-01T14:01:17.843Z,2.40
2018-04-01T14:03:46.000Z,2.23
2018-04-01T14:06:14.150Z,2.60
2018-04-01T14:08:43.125Z,2.67
2018-04-01T14:11:11.323Z,3.80
2018-04-01T14:13:40.217Z,2.87
2018-04-01T14:16:08.369Z,2.40
2018-04-01T14:18:36.523Z,3.20
2018-04-01T14:21:04.670Z,3.17
2018-04-01T14:23:32.902Z,3.17
2018-04-01T14:26:01.878Z,3.43
2018-04-01T14:28:30.062Z,3.30
2018-04-01T14:30:58.210Z,3.60
2018-04-01T14:33:26.387Z,2.53
2018-04-01T14:35:54.515Z,2.60
2018-04-01T14:38:22.689Z,2.43
2018-04-01T14:40:50.858Z,2.70
2018-04-01T14:43:19.801Z,1.93
2018-04-01T14:45:47.929Z,2.27
2018-04-01T14:48:16.073Z,2.23
2018-04-01T14:50:45.050Z,2.17
2018-04-01T14:53:13.279Z,2.23
2018-04-01T14:55:41.398Z,1.90
2018-04-01T14:58:09.569Z,2.03
2018-04-01T15:00:37.765Z,2.70
2018-04-01T15:03:05.906Z,2.33
2018-04-01T15:05:34.054Z,1.90
2018-04-01T15:08:02.262Z,2.30
2018-04-01T15:10:30.399Z,2.17
2018-04-01T15:12:58.582Z,3.17
2018-04-01T15:15:26.763Z,3.30
2018-04-01T15:17:54.918Z,3.63
2018-04-01T15:20:23.119Z,3.93
2018-04-01T15:22:51.270Z,4.40
2018-04-01T15:25:19.444Z,4.23
2018-04-01T15:27:48.316Z,4.23
2018-04-01T15:30:17.261Z,4.30
2018-04-01T15:32:45.403Z,3.93
2018-04-01T15:35:13.675Z,4.60
2018-04-01T15:37:41.803Z,3.60
2018-04-01T15:40:09.964Z,5.57
2018-04-01T15:42:38.110Z,6.00
2018-04-01T15:45:06.297Z,5.60
2018-04-01T15:47:35.177Z,5.67
2018-04-01T15:50:03.322Z,4.40
2018-04-01T15:52:32.435Z,6.43
2018-04-01T15:55:00.605Z,5.30
2018-04-01T15:57:29.505Z,5.27
2018-04-01T15:59:58.444Z,5.27
2018-04-01T16:02:26.596Z,5.37
2018-04-01T16:04:54.734Z,4.90
2018-04-01T16:07:23.723Z,5.53
2018-04-01T16:09:51.825Z,5.17
2018-04-01T16:12:20.037Z,5.37
2018-04-01T16:14:48.157Z,4.67
2018-04-01T16:17:16.307Z,5.10
2018-04-01T16:19:45.275Z,6.10
2018-04-01T16:22:13.450Z,5.67
2018-04-01T16:24:41.606Z,5.60
2018-04-01T16:27:09.913Z,5.40
2018-04-01T16:29:38.086Z,5.27
2018-04-01T16:32:06.265Z,5.27
2018-04-01T16:34:34.430Z,5.50
2018-04-01T16:37:02.575Z,6.50
2018-04-01T16:39:31.829Z,5.67
2018-04-01T16:41:59.948Z,6.60
2018-04-01T16:44:28.110Z,6.43
2018-04-01T16:46:56.288Z,6.43
2018-04-01T16:49:25.327Z,6.20
2018-04-01T16:51:53.491Z,6.47
2018-04-01T16:54:21.638Z,6.47
2018-04-01T16:56:49.799Z,7.00
2018-04-01T16:59:18.737Z,5.70
2018-04-01T17:01:46.897Z,5.20
2018-04-01T17:04:15.047Z,6.40
2018-04-01T17:06:43.978Z,6.20
2018-04-01T17:09:12.179Z,5.00
2018-04-01T17:11:40.388Z,6.00
2018-04-01T17:14:08.520Z,6.37
2018-04-01T17:16:36.711Z,6.10
2018-04-01T17:19:04.887Z,5.40
2018-04-01T17:21:33.770Z,5.10
2018-04-01T17:24:01.912Z,5.70
2018-04-01T17:26:30.078Z,5.80
2018-04-01T17:28:58.238Z,4.57
2018-04-01T17:31:26.444Z,4.63
2018-04-01T17:33:54.625Z,6.50
2018-04-01T17:36:22.830Z,6.20
2018-04-01T17:38:51.020Z,6.40
2018-04-01T17:41:19.226Z,5.80
2018-04-01T17:43:48.107Z,5.80
2018-04-01T17:46:16.285Z,5.30
2018-04-01T17:48:44.417Z,5.90
2018-04-01T17:51:12.624Z,6.73
2018-04-01T17:53:40.751Z,6.73
2018-04-01T17:56:08.890Z,7.67
2018-04-01T17:58:37.046Z,7.30
2018-04-01T18:01:05.214Z,7.87
2018-04-01T18:03:33.370Z,8.80
2018-04-01T18:06:01.533Z,8.90
2018-04-01T18:08:29.715Z,10.50
2018-04-01T18:10:57.853Z,11.03
2018-04-01T18:13:26.121Z,12.20
2018-04-01T18:15:54.270Z,12.73
2018-04-01T18:18:23.226Z,12.80
2018-04-01T18:20:51.424Z,13.10
2018-04-01T18:23:19.595Z,13.27
2018-04-01T18:25:47.772Z,12.83
2018-04-01T18:28:16.058Z,12.00
2018-04-01T18:30:45.037Z,12.50
2018-04-01T18:33:13.107Z,13.30
2018-04-01T18:35:41.862Z,12.13
2018-04-01T18:38:10.060Z,11.03
2018-04-01T18:40:38.258Z,11.57
2018-04-01T18:43:06.529Z,11.83
2018-04-01T18:45:36.249Z,12.17
2018-04-01T18:48:04.453Z,15.33
2018-04-01T18:50:32.652Z,14.57
2018-04-01T18:53:00.822Z,30.43
2018-04-01T18:55:28.982Z,21.37
2018-04-01T18:57:57.168Z,16.90
2018-04-01T19:00:25.491Z,15.87
2018-04-01T19:02:53.662Z,16.23
2018-04-01T19:05:21.851Z,17.73
2018-04-01T19:07:50.014Z,17.20
2018-04-01T19:10:18.171Z,15.90
2018-04-01T19:12:46.369Z,16.27
2018-04-01T19:15:14.575Z,18.27
2018-04-01T19:17:43.917Z,19.83
2018-04-01T19:20:13.189Z,17.53
2018-04-01T19:22:42.438Z,16.73
2018-04-01T19:25:12.729Z,16.50
2018-04-01T19:27:42.004Z,16.63
2018-04-01T19:30:11.275Z,15.50
2018-04-01T19:32:40.528Z,15.90
2018-04-01T19:35:09.797Z,14.67
2018-04-01T19:37:39.851Z,14.83
2018-04-01T19:40:09.296Z,14.30
2018-04-01T19:42:38.561Z,13.80
2018-04-01T19:45:07.833Z,14.07
2018-04-01T19:47:37.153Z,15.00
2018-04-01T19:50:06.433Z,15.37
2018-04-01T19:52:35.702Z,16.50
2018-04-01T19:55:04.971Z,14.47
2018-04-01T19:57:34.258Z,14.70
2018-04-01T20:00:03.556Z,15.30
2018-04-01T20:02:32.937Z,15.57
2018-04-01T20:05:03.022Z,14.70
2018-04-01T20:07:32.278Z,15.80
2018-04-01T20:10:01.551Z,16.67
2018-04-01T20:12:30.930Z,16.23
2018-04-01T20:15:00.210Z,17.37
2018-04-01T20:17:29.487Z,16.73
2018-04-01T20:19:58.770Z,17.53
2018-04-01T20:22:28.014Z,18.87
2018-04-01T20:24:57.294Z,20.50
2018-04-01T20:27:26.566Z,16.87
2018-04-01T20:29:55.836Z,16.70
2018-04-01T20:32:25.107Z,17.37
2018-04-01T20:34:54.354Z,19.13
2018-04-01T20:37:24.398Z,19.20
2018-04-01T20:39:53.733Z,17.83
2018-04-01T20:42:23.012Z,19.50
2018-04-01T20:44:52.274Z,18.50
2018-04-01T20:47:21.685Z,18.67
2018-04-01T20:49:51.702Z,20.53
2018-04-01T20:52:21.025Z,17.93
2018-04-01T20:54:50.290Z,20.70
2018-04-01T20:57:19.549Z,17.47
2018-04-01T20:59:48.883Z,19.00
2018-04-01T21:02:18.159Z,20.73
2018-04-01T21:04:47.457Z,18.47
2018-04-01T21:07:16.730Z,19.67
2018-04-01T21:09:45.969Z,20.63
2018-04-01T21:12:15.252Z,19.40
2018-04-01T21:14:44.498Z,20.57
2018-04-01T21:17:13.794Z,20.47
2018-04-01T21:19:43.063Z,20.47
2018-04-01T21:22:12.326Z,19.03
2018-04-01T21:24:42.395Z,20.40
2018-04-01T21:27:11.643Z,21.33
2018-04-01T21:29:40.911Z,22.37
2018-04-01T21:32:10.158Z,23.10
2018-04-01T21:34:39.424Z,22.47
2018-04-01T21:37:08.698Z,22.07
2018-04-01T21:39:38.090Z,21.80
2018-04-01T21:42:07.354Z,21.80
2018-04-01T21:44:37.383Z,22.30
2018-04-01T21:47:06.675Z,21.23
2018-04-01T21:49:35.923Z,22.53
2018-04-01T21:52:05.190Z,22.50
2018-04-01T21:54:34.434Z,23.50
2018-04-01T21:57:03.853Z,25.90
2018-04-01T21:59:33.168Z,34.80
2018-04-01T22:02:02.445Z,25.00
2018-04-01T22:04:31.707Z,22.67
2018-04-01T22:07:00.954Z,24.60
2018-04-01T22:09:30.194Z,22.10
2018-04-01T22:11:59.457Z,21.73
2018-04-01T22:14:29.498Z,21.00
2018-04-01T22:16:59.588Z,21.90
2018-04-01T22:19:28.851Z,22.67
2018-04-01T22:21:58.110Z,24.20
2018-04-01T22:24:27.399Z,22.17
2018-04-01T22:26:56.639Z,20.00
2018-04-01T22:29:25.916Z,20.17
2018-04-01T22:31:55.922Z,19.83
2018-04-01T22:34:25.216Z,21.53
2018-04-01T22:36:54.594Z,20.03
2018-04-01T22:39:23.853Z,20.43
2018-04-01T22:41:53.117Z,20.70
2018-04-01T22:44:22.390Z,18.47
2018-04-01T22:46:51.692Z,23.33
2018-04-01T22:49:20.946Z,21.53
2018-04-01T22:51:50.954Z,18.50
2018-04-01T22:54:20.215Z,19.90
2018-04-01T22:56:49.455Z,21.77
2018-04-01T22:59:20.173Z,21.03
2018-04-01T23:01:50.244Z,22.57
2018-04-01T23:04:19.497Z,19.30
2018-04-01T23:06:48.797Z,17.50
2018-04-01T23:09:18.139Z,21.57
2018-04-01T23:11:47.374Z,20.77
2018-04-01T23:14:16.614Z,19.80
2018-04-01T23:16:45.901Z,19.17
2018-04-01T23:19:15.138Z,21.30
2018-04-01T23:21:44.405Z,19.70
2018-04-01T23:24:14.415Z,22.50
2018-04-01T23:26:43.659Z,21.47
2018-04-01T23:29:12.944Z,20.63
2018-04-01T23:31:42.178Z,21.10
2018-04-01T23:34:11.458Z,21.17
2018-04-01T23:36:40.699Z,20.67
2018-04-01T23:39:09.956Z,23.10
2018-04-01T23:41:39.209Z,21.10
2018-04-01T23:44:08.489Z,21.70
2018-04-01T23:46:37.706Z,22.37
2018-04-01T23:49:07.062Z,20.63
2018-04-01T23:51:36.350Z,19.97
2018-04-01T23:54:06.353Z,22.13
2018-04-01T23:56:35.622Z,21.87
2018-04-01T23:59:04.897Z,21.33
